EJA823 KGPT-TIST
Flight info
| Callsign | EJA823 |
|---|---|
| Flight time | 3h 13m |
| Altitude | 45000 |
| Route | HRV Q105 BLVNS Y290 JETSS |
| Aircraft | C700/M-SBDGHM1RWXY/LB2 |
Departure
| Time | 2026-04-22 19:38 |
|---|---|
| Airport | Gulfport Biloxi International Airport (KGPT) |
Arrival
| Time | 2026-04-22 22:52 |
|---|---|
| Airport | Cyril E. King Airport (TIST) |
| Time | Latitude | Longitude | Altitude | Speed | Heading |
|---|---|---|---|---|---|
| 2026-04-22 19:28 | 30.40372 | -89.07382 | 27 ft | 0 kts | 224° |
| 2026-04-22 19:33 | 30.40370 | -89.07397 | 27 ft | 3 kts | 300° |
| 2026-04-22 19:34 | 30.40413 | -89.07393 | 25 ft | 10 kts | 26° |
| 2026-04-22 19:34 | 30.40480 | -89.07320 | 26 ft | 15 kts | 41° |
| 2026-04-22 19:34 | 30.40552 | -89.07362 | 25 ft | 15 kts | 315° |
| 2026-04-22 19:34 | 30.40632 | -89.07460 | 25 ft | 18 kts | 312° |
| 2026-04-22 19:35 | 30.40728 | -89.07572 | 25 ft | 21 kts | 318° |
| 2026-04-22 19:35 | 30.40841 | -89.07696 | 26 ft | 24 kts | 315° |
| 2026-04-22 19:35 | 30.40964 | -89.07839 | 27 ft | 26 kts | 315° |
| 2026-04-22 19:35 | 30.41099 | -89.07996 | 27 ft | 29 kts | 315° |
| 2026-04-22 19:36 | 30.41166 | -89.08128 | 25 ft | 17 kts | 289° |
| 2026-04-22 19:36 | 30.41251 | -89.08235 | 27 ft | 20 kts | 315° |
| 2026-04-22 19:36 | 30.41315 | -89.08309 | 26 ft | 10 kts | 315° |
| 2026-04-22 19:36 | 30.41386 | -89.08323 | 25 ft | 12 kts | 30° |
| 2026-04-22 19:37 | 30.41449 | -89.08248 | 26 ft | 14 kts | 52° |
| 2026-04-22 19:37 | 30.41457 | -89.08184 | 27 ft | 0 kts | 140° |
| 2026-04-22 19:37 | 30.41446 | -89.08174 | 27 ft | 9 kts | 137° |
| 2026-04-22 19:38 | 30.41273 | -89.07972 | 28 ft | 64 kts | 135° |
| 2026-04-22 19:38 | 30.40832 | -89.07456 | 30 ft | 114 kts | 133° |
| 2026-04-22 19:38 | 30.40233 | -89.06711 | 275 ft | 135 kts | 131° |
| 2026-04-22 19:38 | 30.39549 | -89.05899 | 772 ft | 148 kts | 137° |
| 2026-04-22 19:39 | 30.38680 | -89.05130 | 1217 ft | 166 kts | 152° |
| 2026-04-22 19:39 | 30.37531 | -89.04982 | 1795 ft | 177 kts | 191° |
| 2026-04-22 19:39 | 30.36374 | -89.05486 | 2492 ft | 184 kts | 200° |
| 2026-04-22 19:39 | 30.35060 | -89.06075 | 3339 ft | 223 kts | 203° |
| 2026-04-22 19:40 | 30.33691 | -89.07193 | 4454 ft | 262 kts | 225° |
| 2026-04-22 19:40 | 30.32503 | -89.08948 | 5758 ft | 291 kts | 232° |
| 2026-04-22 19:40 | 30.31306 | -89.10885 | 7503 ft | 294 kts | 234° |
| 2026-04-22 19:40 | 30.30132 | -89.12780 | 9528 ft | 286 kts | 234° |
| 2026-04-22 19:41 | 30.28948 | -89.14612 | 11215 ft | 292 kts | 234° |
| 2026-04-22 19:41 | 30.27676 | -89.16519 | 12338 ft | 310 kts | 233° |
| 2026-04-22 19:41 | 30.26340 | -89.18490 | 13909 ft | 314 kts | 233° |
| 2026-04-22 19:41 | 30.24962 | -89.20496 | 15188 ft | 323 kts | 234° |
| 2026-04-22 19:42 | 30.23542 | -89.22537 | 16509 ft | 328 kts | 234° |
| 2026-04-22 19:42 | 30.22086 | -89.24598 | 17803 ft | 334 kts | 234° |
| 2026-04-22 19:42 | 30.20587 | -89.26690 | 18981 ft | 341 kts | 234° |
| 2026-04-22 19:42 | 30.19052 | -89.28811 | 20062 ft | 347 kts | 234° |
| 2026-04-22 19:43 | 30.15874 | -89.33146 | 22062 ft | 360 kts | 234° |
| 2026-04-22 19:43 | 30.14233 | -89.35359 | 23036 ft | 366 kts | 234° |
| 2026-04-22 19:43 | 30.12559 | -89.37605 | 23969 ft | 372 kts | 234° |
| 2026-04-22 19:44 | 30.10859 | -89.39870 | 24889 ft | 373 kts | 234° |
| 2026-04-22 19:44 | 30.09147 | -89.42122 | 25919 ft | 373 kts | 234° |
| 2026-04-22 19:44 | 30.07418 | -89.44380 | 26800 ft | 376 kts | 233° |
| 2026-04-22 19:44 | 30.05627 | -89.46603 | 27633 ft | 384 kts | 227° |
| 2026-04-22 19:45 | 30.03292 | -89.48206 | 28484 ft | 401 kts | 207° |
| 2026-04-22 19:45 | 30.00512 | -89.48876 | 29336 ft | 417 kts | 191° |
| 2026-04-22 19:45 | 29.97573 | -89.48834 | 30175 ft | 428 kts | 184° |
| 2026-04-22 19:45 | 29.94578 | -89.48500 | 30886 ft | 434 kts | 181° |
| 2026-04-22 19:46 | 29.91566 | -89.48048 | 31566 ft | 439 kts | 180° |
| 2026-04-22 19:46 | 29.88572 | -89.47545 | 32196 ft | 442 kts | 179° |
| 2026-04-22 19:46 | 29.85473 | -89.46998 | 32830 ft | 446 kts | 179° |
| 2026-04-22 19:46 | 29.82398 | -89.46439 | 33438 ft | 450 kts | 179° |
| 2026-04-22 19:47 | 29.79350 | -89.45875 | 34169 ft | 450 kts | 179° |
| 2026-04-22 19:47 | 29.76206 | -89.45291 | 34638 ft | 454 kts | 179° |
| 2026-04-22 19:47 | 29.74132 | -89.44908 | 34912 ft | 457 kts | 178° |
| 2026-04-22 19:47 | 29.69942 | -89.44147 | 35470 ft | 463 kts | 178° |
| 2026-04-22 19:48 | 29.66744 | -89.43577 | 35888 ft | 466 kts | 178° |
| 2026-04-22 19:48 | 29.63533 | -89.43014 | 36431 ft | 466 kts | 178° |
| 2026-04-22 19:48 | 29.60323 | -89.42458 | 36906 ft | 467 kts | 178° |
| 2026-04-22 19:48 | 29.57108 | -89.41884 | 37343 ft | 470 kts | 176° |
| 2026-04-22 19:49 | 29.53933 | -89.40845 | 37762 ft | 479 kts | 166° |
| 2026-04-22 19:49 | 29.50846 | -89.39363 | 38198 ft | 482 kts | 162° |
| 2026-04-22 19:49 | 29.47811 | -89.37701 | 38583 ft | 484 kts | 160° |
| 2026-04-22 19:49 | 29.44796 | -89.35966 | 38926 ft | 486 kts | 159° |
| 2026-04-22 19:50 | 29.41786 | -89.34200 | 39235 ft | 485 kts | 159° |
| 2026-04-22 19:50 | 29.38780 | -89.32426 | 39552 ft | 485 kts | 159° |
| 2026-04-22 19:50 | 29.35782 | -89.30656 | 39845 ft | 484 kts | 158° |
| 2026-04-22 19:50 | 29.32795 | -89.28863 | 40129 ft | 486 kts | 155° |
| 2026-04-22 19:51 | 29.29988 | -89.26650 | 40396 ft | 493 kts | 145° |
| 2026-04-22 19:51 | 29.27528 | -89.23899 | 40693 ft | 497 kts | 134° |
| 2026-04-22 19:51 | 29.25409 | -89.20755 | 40939 ft | 500 kts | 128° |
| 2026-04-22 19:51 | 29.23449 | -89.17466 | 41186 ft | 500 kts | 127° |
| 2026-04-22 19:52 | 29.21475 | -89.14190 | 41462 ft | 499 kts | 129° |
| 2026-04-22 19:52 | 29.19303 | -89.11118 | 41736 ft | 495 kts | 135° |
| 2026-04-22 19:52 | 29.16964 | -89.08236 | 41994 ft | 493 kts | 137° |
| 2026-04-22 19:52 | 29.14620 | -89.05366 | 42231 ft | 494 kts | 135° |
| 2026-04-22 19:53 | 29.12417 | -89.02346 | 42477 ft | 495 kts | 132° |
| 2026-04-22 19:53 | 29.10289 | -88.99328 | 42734 ft | 493 kts | 133° |
| 2026-04-22 19:53 | 29.08054 | -88.96362 | 42965 ft | 492 kts | 135° |
| 2026-04-22 19:53 | 29.05778 | -88.93448 | 43184 ft | 491 kts | 135° |
| 2026-04-22 19:54 | 29.03547 | -88.90489 | 43398 ft | 491 kts | 133° |
| 2026-04-22 19:54 | 29.01351 | -88.87498 | 43605 ft | 491 kts | 133° |
| 2026-04-22 19:54 | 28.99137 | -88.84536 | 43813 ft | 490 kts | 134° |
| 2026-04-22 19:54 | 28.96902 | -88.81607 | 44031 ft | 489 kts | 134° |
| 2026-04-22 19:55 | 28.94676 | -88.78670 | 44191 ft | 488 kts | 134° |
| 2026-04-22 19:55 | 28.92467 | -88.75720 | 44309 ft | 489 kts | 134° |
| 2026-04-22 19:55 | 28.90253 | -88.72772 | 44481 ft | 489 kts | 134° |
| 2026-04-22 19:55 | 28.88031 | -88.69838 | 44657 ft | 488 kts | 135° |
| 2026-04-22 19:56 | 28.85820 | -88.66898 | 44805 ft | 488 kts | 134° |
| 2026-04-22 19:56 | 28.83632 | -88.63932 | 44946 ft | 488 kts | 134° |
| 2026-04-22 19:56 | 28.81445 | -88.60975 | 45059 ft | 488 kts | 134° |
| 2026-04-22 19:56 | 28.79242 | -88.58034 | 45159 ft | 488 kts | 134° |
| 2026-04-22 19:57 | 28.74811 | -88.52112 | 45159 ft | 494 kts | 134° |
| 2026-04-22 19:57 | 28.70339 | -88.46122 | 45174 ft | 499 kts | 134° |
| 2026-04-22 19:58 | 28.65811 | -88.40083 | 45177 ft | 503 kts | 134° |
| 2026-04-22 19:58 | 28.61246 | -88.33990 | 45157 ft | 508 kts | 134° |
| 2026-04-22 20:00 | 28.45164 | -88.12617 | 45156 ft | 505 kts | 134° |
| 2026-04-22 20:01 | 28.40614 | -88.06550 | 45151 ft | 506 kts | 132° |
| 2026-04-22 20:01 | 28.37132 | -87.99550 | 45156 ft | 515 kts | 113° |
| 2026-04-22 20:02 | 28.34896 | -87.91853 | 45155 ft | 518 kts | 110° |
| 2026-04-22 20:02 | 28.32637 | -87.84067 | 45164 ft | 521 kts | 110° |
| 2026-04-22 20:03 | 28.30385 | -87.76263 | 45168 ft | 519 kts | 110° |
| 2026-04-22 20:03 | 28.28133 | -87.68510 | 45160 ft | 516 kts | 111° |
| 2026-04-22 20:04 | 28.25884 | -87.60777 | 45162 ft | 516 kts | 111° |
| 2026-04-22 20:04 | 28.23628 | -87.53036 | 45169 ft | 517 kts | 111° |
| 2026-04-22 20:05 | 28.21363 | -87.45286 | 45164 ft | 518 kts | 111° |
| 2026-04-22 20:05 | 28.19091 | -87.37528 | 45168 ft | 519 kts | 111° |
| 2026-04-22 20:06 | 28.16812 | -87.29763 | 45163 ft | 520 kts | 111° |
| 2026-04-22 20:06 | 28.14522 | -87.21983 | 45157 ft | 521 kts | 111° |
| 2026-04-22 20:07 | 28.12224 | -87.14190 | 45159 ft | 522 kts | 111° |
| 2026-04-22 20:07 | 28.09920 | -87.06399 | 45157 ft | 522 kts | 111° |
| 2026-04-22 20:08 | 28.07623 | -86.98649 | 45163 ft | 523 kts | 111° |
| 2026-04-22 20:08 | 28.05308 | -86.90852 | 45171 ft | 521 kts | 111° |
| 2026-04-22 20:09 | 28.03370 | -86.84343 | 45162 ft | 519 kts | 111° |
| 2026-04-22 20:09 | 28.01067 | -86.76622 | 45169 ft | 517 kts | 111° |
| 2026-04-22 20:10 | 27.98821 | -86.68883 | 45169 ft | 519 kts | 110° |
| 2026-04-22 20:10 | 27.96589 | -86.61115 | 45178 ft | 520 kts | 111° |
| 2026-04-22 20:11 | 27.94318 | -86.53338 | 45168 ft | 522 kts | 111° |
| 2026-04-22 20:11 | 27.92059 | -86.45526 | 45172 ft | 523 kts | 111° |
| 2026-04-22 20:12 | 27.89787 | -86.37761 | 45174 ft | 522 kts | 111° |
| 2026-04-22 20:12 | 27.87523 | -86.29989 | 45168 ft | 519 kts | 111° |
| 2026-04-22 20:13 | 27.85257 | -86.22263 | 45168 ft | 517 kts | 111° |
| 2026-04-22 20:13 | 27.82993 | -86.14542 | 45174 ft | 519 kts | 111° |
| 2026-04-22 20:14 | 27.80705 | -86.06770 | 45184 ft | 523 kts | 111° |
| 2026-04-22 20:14 | 27.78403 | -85.98961 | 45187 ft | 524 kts | 111° |
| 2026-04-22 20:15 | 27.76102 | -85.91171 | 45173 ft | 521 kts | 111° |
| 2026-04-22 20:15 | 27.73809 | -85.83431 | 45168 ft | 518 kts | 111° |
| 2026-04-22 20:16 | 27.71520 | -85.75723 | 45172 ft | 519 kts | 111° |
| 2026-04-22 20:16 | 27.69214 | -85.67975 | 45174 ft | 522 kts | 111° |
| 2026-04-22 20:17 | 27.66892 | -85.60190 | 45178 ft | 524 kts | 111° |
| 2026-04-22 20:17 | 27.64567 | -85.52409 | 45175 ft | 522 kts | 112° |
| 2026-04-22 20:18 | 27.62249 | -85.44675 | 45161 ft | 519 kts | 112° |
| 2026-04-22 20:18 | 27.59936 | -85.36974 | 45172 ft | 519 kts | 112° |
| 2026-04-22 20:19 | 27.58237 | -85.29028 | 45181 ft | 524 kts | 103° |
| 2026-04-22 20:19 | 27.56834 | -85.20943 | 45184 ft | 527 kts | 104° |
| 2026-04-22 20:20 | 27.55417 | -85.12837 | 45183 ft | 526 kts | 103° |
| 2026-04-22 20:20 | 27.54009 | -85.04767 | 45178 ft | 523 kts | 104° |
| 2026-04-22 20:21 | 27.52591 | -84.96725 | 45182 ft | 524 kts | 103° |
| 2026-04-22 20:21 | 27.51175 | -84.88667 | 45182 ft | 525 kts | 104° |
| 2026-04-22 20:22 | 27.49743 | -84.80594 | 45180 ft | 526 kts | 104° |
| 2026-04-22 20:22 | 27.48308 | -84.72499 | 45180 ft | 528 kts | 104° |
| 2026-04-22 20:23 | 27.46862 | -84.64390 | 45179 ft | 529 kts | 104° |
| 2026-04-22 20:23 | 27.45409 | -84.56260 | 45180 ft | 529 kts | 104° |
| 2026-04-22 20:24 | 27.43955 | -84.48158 | 45172 ft | 527 kts | 104° |
| 2026-04-22 20:24 | 27.42514 | -84.40153 | 45167 ft | 524 kts | 104° |
| 2026-04-22 20:25 | 27.41063 | -84.32123 | 45167 ft | 524 kts | 104° |
| 2026-04-22 20:25 | 27.39599 | -84.24059 | 45167 ft | 528 kts | 104° |
| 2026-04-22 20:26 | 27.38123 | -84.15944 | 45181 ft | 531 kts | 104° |
| 2026-04-22 20:26 | 27.36634 | -84.07791 | 45182 ft | 531 kts | 104° |
| 2026-04-22 20:27 | 27.35149 | -83.99681 | 45172 ft | 528 kts | 104° |
| 2026-04-22 20:27 | 27.33668 | -83.91620 | 45169 ft | 524 kts | 105° |
| 2026-04-22 20:28 | 27.32181 | -83.83572 | 45173 ft | 527 kts | 105° |
| 2026-04-22 20:28 | 27.30684 | -83.75479 | 45177 ft | 530 kts | 105° |
| 2026-04-22 20:29 | 27.29171 | -83.67337 | 45182 ft | 533 kts | 105° |
| 2026-04-22 20:29 | 27.27651 | -83.59176 | 45179 ft | 532 kts | 105° |
| 2026-04-22 20:30 | 27.26134 | -83.51061 | 45166 ft | 529 kts | 105° |
| 2026-04-22 20:30 | 27.24617 | -83.42977 | 45162 ft | 529 kts | 105° |
| 2026-04-22 20:31 | 27.23091 | -83.34874 | 45161 ft | 532 kts | 105° |
| 2026-04-22 20:31 | 27.21563 | -83.26785 | 45164 ft | 534 kts | 105° |
| 2026-04-22 20:32 | 27.20018 | -83.18625 | 45167 ft | 533 kts | 105° |
| 2026-04-22 20:32 | 27.18474 | -83.10503 | 45157 ft | 530 kts | 105° |
| 2026-04-22 20:33 | 27.16931 | -83.02420 | 45156 ft | 529 kts | 105° |
| 2026-04-22 20:33 | 27.15381 | -82.94323 | 45163 ft | 532 kts | 105° |
| 2026-04-22 20:34 | 27.13472 | -82.86321 | 45186 ft | 528 kts | 116° |
| 2026-04-22 20:34 | 27.09870 | -82.79251 | 45185 ft | 517 kts | 134° |
| 2026-04-22 20:35 | 27.05336 | -82.73039 | 45181 ft | 513 kts | 136° |
| 2026-04-22 20:35 | 27.00823 | -82.66862 | 45170 ft | 511 kts | 136° |
| 2026-04-22 20:36 | 26.96321 | -82.60728 | 45166 ft | 507 kts | 136° |
| 2026-04-22 20:36 | 26.91848 | -82.54629 | 45161 ft | 507 kts | 136° |
| 2026-04-22 20:37 | 26.87349 | -82.48513 | 45155 ft | 510 kts | 136° |
| 2026-04-22 20:37 | 26.82856 | -82.42406 | 45158 ft | 513 kts | 136° |
| 2026-04-22 20:38 | 26.78328 | -82.36261 | 45151 ft | 510 kts | 136° |
| 2026-04-22 20:38 | 26.73821 | -82.30155 | 45152 ft | 507 kts | 136° |
| 2026-04-22 20:39 | 26.69333 | -82.24082 | 45148 ft | 507 kts | 136° |
| 2026-04-22 20:39 | 26.64827 | -82.17996 | 45129 ft | 509 kts | 137° |
| 2026-04-22 20:40 | 26.60317 | -82.11908 | 45148 ft | 508 kts | 137° |
| 2026-04-22 20:40 | 26.55802 | -82.05825 | 45144 ft | 508 kts | 137° |
| 2026-04-22 20:41 | 26.51296 | -81.99760 | 45143 ft | 507 kts | 137° |
| 2026-04-22 20:41 | 26.46785 | -81.93699 | 45140 ft | 507 kts | 137° |
| 2026-04-22 20:42 | 26.42277 | -81.87647 | 45146 ft | 507 kts | 137° |
| 2026-04-22 20:42 | 26.37768 | -81.81606 | 45144 ft | 506 kts | 137° |
| 2026-04-22 20:43 | 26.33292 | -81.75614 | 45138 ft | 506 kts | 137° |
| 2026-04-22 20:43 | 26.28794 | -81.69601 | 45134 ft | 504 kts | 137° |
| 2026-04-22 20:44 | 26.24300 | -81.63603 | 45139 ft | 504 kts | 137° |
| 2026-04-22 20:44 | 26.19805 | -81.57611 | 45140 ft | 505 kts | 137° |
| 2026-04-22 20:45 | 26.15299 | -81.51612 | 45153 ft | 505 kts | 137° |
| 2026-04-22 20:45 | 26.11239 | -81.45160 | 45144 ft | 518 kts | 123° |
| 2026-04-22 20:46 | 26.07749 | -81.33640 | 45162 ft | 527 kts | 110° |
| 2026-04-22 20:46 | 26.05732 | -81.25799 | 45160 ft | 528 kts | 110° |
| 2026-04-22 20:47 | 26.03714 | -81.17939 | 45167 ft | 529 kts | 110° |
| 2026-04-22 20:47 | 26.01683 | -81.10061 | 45168 ft | 531 kts | 110° |
| 2026-04-22 20:48 | 25.99645 | -81.02168 | 45170 ft | 532 kts | 110° |
| 2026-04-22 20:48 | 25.97598 | -80.94262 | 45170 ft | 532 kts | 111° |
| 2026-04-22 20:49 | 25.95556 | -80.86393 | 45161 ft | 528 kts | 110° |
| 2026-04-22 20:49 | 25.93516 | -80.78554 | 45163 ft | 528 kts | 110° |
| 2026-04-22 20:50 | 25.91484 | -80.70765 | 45173 ft | 530 kts | 110° |
| 2026-04-22 20:50 | 25.89422 | -80.62877 | 45176 ft | 532 kts | 110° |
| 2026-04-22 20:51 | 25.87353 | -80.54982 | 45175 ft | 532 kts | 110° |
| 2026-04-22 20:51 | 25.85281 | -80.47090 | 45174 ft | 529 kts | 110° |
| 2026-04-22 20:52 | 25.83216 | -80.39252 | 45178 ft | 529 kts | 111° |
| 2026-04-22 20:52 | 25.81145 | -80.31407 | 45171 ft | 530 kts | 111° |
| 2026-04-22 20:53 | 25.79069 | -80.23560 | 45178 ft | 530 kts | 111° |
| 2026-04-22 20:53 | 25.76986 | -80.15709 | 45168 ft | 531 kts | 110° |
| 2026-04-22 20:54 | 25.74898 | -80.07855 | 45172 ft | 531 kts | 110° |
| 2026-04-22 20:54 | 25.72804 | -79.99997 | 45168 ft | 531 kts | 111° |
| 2026-04-22 20:55 | 25.70705 | -79.92139 | 45168 ft | 532 kts | 111° |
| 2026-04-22 20:55 | 25.68599 | -79.84278 | 45166 ft | 532 kts | 111° |
| 2026-04-22 20:56 | 25.66503 | -79.76467 | 45167 ft | 533 kts | 111° |
| 2026-04-22 20:56 | 25.64401 | -79.68591 | 45157 ft | 534 kts | 109° |
| 2026-04-22 20:57 | 25.62659 | -79.60572 | 45163 ft | 536 kts | 107° |
| 2026-04-22 20:57 | 25.61190 | -79.53851 | 45164 ft | 536 kts | 108° |
| 2026-04-22 20:58 | 25.59422 | -79.45823 | 45160 ft | 537 kts | 107° |
| 2026-04-22 20:58 | 25.57666 | -79.37790 | 45162 ft | 537 kts | 107° |
| 2026-04-22 20:59 | 25.55877 | -79.29758 | 45162 ft | 537 kts | 109° |
| 2026-04-22 20:59 | 25.53048 | -79.22287 | 45170 ft | 527 kts | 122° |
| 2026-04-22 21:00 | 25.49759 | -79.15045 | 45170 ft | 526 kts | 122° |
| 2026-04-22 21:00 | 25.46479 | -79.07818 | 45164 ft | 525 kts | 122° |
| 2026-04-22 21:01 | 25.43190 | -79.00598 | 45155 ft | 525 kts | 122° |
| 2026-04-22 21:01 | 25.39903 | -78.93380 | 45154 ft | 525 kts | 122° |
| 2026-04-22 21:02 | 25.36606 | -78.86164 | 45153 ft | 526 kts | 122° |
| 2026-04-22 21:02 | 25.33305 | -78.78944 | 45147 ft | 527 kts | 122° |
| 2026-04-22 21:03 | 25.29998 | -78.71714 | 45151 ft | 527 kts | 122° |
| 2026-04-22 21:03 | 25.26682 | -78.64491 | 45151 ft | 527 kts | 122° |
| 2026-04-22 21:04 | 25.23365 | -78.57270 | 45154 ft | 527 kts | 122° |
| 2026-04-22 21:04 | 25.20046 | -78.50059 | 45155 ft | 527 kts | 122° |
| 2026-04-22 21:05 | 25.16725 | -78.42854 | 45151 ft | 526 kts | 122° |
| 2026-04-22 21:05 | 25.13409 | -78.35672 | 45152 ft | 525 kts | 122° |
| 2026-04-22 21:06 | 25.10095 | -78.28507 | 45163 ft | 524 kts | 122° |
| 2026-04-22 21:06 | 25.06783 | -78.21356 | 45160 ft | 523 kts | 122° |
| 2026-04-22 21:07 | 25.03472 | -78.14220 | 45147 ft | 522 kts | 122° |
| 2026-04-22 21:07 | 25.00163 | -78.07098 | 45147 ft | 522 kts | 122° |
| 2026-04-22 21:08 | 24.96862 | -78.00012 | 45142 ft | 524 kts | 122° |
| 2026-04-22 21:08 | 24.93502 | -77.92797 | 45153 ft | 527 kts | 122° |
| 2026-04-22 21:09 | 24.90141 | -77.85602 | 45165 ft | 529 kts | 122° |
| 2026-04-22 21:09 | 24.86791 | -77.78434 | 45163 ft | 530 kts | 122° |
| 2026-04-22 21:10 | 24.83427 | -77.71249 | 45153 ft | 526 kts | 122° |
| 2026-04-22 21:10 | 24.80082 | -77.64117 | 45148 ft | 522 kts | 122° |
| 2026-04-22 21:11 | 24.76745 | -77.57017 | 45150 ft | 523 kts | 122° |
| 2026-04-22 21:11 | 24.73410 | -77.49871 | 45142 ft | 526 kts | 121° |
| 2026-04-22 21:12 | 24.70160 | -77.42636 | 45143 ft | 529 kts | 121° |
| 2026-04-22 21:12 | 24.66826 | -77.35414 | 45145 ft | 530 kts | 122° |
| 2026-04-22 21:13 | 24.63529 | -77.28168 | 45146 ft | 528 kts | 121° |
| 2026-04-22 21:13 | 24.60222 | -77.20979 | 45140 ft | 525 kts | 122° |
| 2026-04-22 21:14 | 24.56940 | -77.13822 | 45134 ft | 525 kts | 121° |
| 2026-04-22 21:14 | 24.53631 | -77.06634 | 45143 ft | 528 kts | 122° |
| 2026-04-22 21:15 | 24.50311 | -76.99427 | 45151 ft | 530 kts | 121° |
| 2026-04-22 21:15 | 24.47000 | -76.92251 | 45149 ft | 530 kts | 122° |
| 2026-04-22 21:16 | 24.43672 | -76.85047 | 45136 ft | 527 kts | 121° |
| 2026-04-22 21:16 | 24.40366 | -76.77906 | 45128 ft | 523 kts | 122° |
| 2026-04-22 21:17 | 24.37072 | -76.70800 | 45130 ft | 523 kts | 122° |
| 2026-04-22 21:17 | 24.33764 | -76.63676 | 45130 ft | 525 kts | 122° |
| 2026-04-22 21:18 | 24.30437 | -76.56522 | 45130 ft | 528 kts | 122° |
| 2026-04-22 21:18 | 24.27096 | -76.49346 | 45130 ft | 528 kts | 122° |
| 2026-04-22 21:19 | 24.23763 | -76.42197 | 45127 ft | 526 kts | 122° |
| 2026-04-22 21:19 | 24.20439 | -76.35083 | 45128 ft | 523 kts | 122° |
| 2026-04-22 21:20 | 24.17122 | -76.27993 | 45128 ft | 523 kts | 122° |
| 2026-04-22 21:20 | 24.13792 | -76.20890 | 45124 ft | 525 kts | 122° |
| 2026-04-22 21:21 | 24.10447 | -76.13756 | 45126 ft | 527 kts | 122° |
| 2026-04-22 21:21 | 24.07085 | -76.06606 | 45127 ft | 529 kts | 122° |
| 2026-04-22 21:22 | 24.03753 | -75.99522 | 45121 ft | 526 kts | 122° |
| 2026-04-22 21:22 | 24.00406 | -75.92424 | 45120 ft | 524 kts | 122° |
| 2026-04-22 21:23 | 23.97073 | -75.85362 | 45117 ft | 522 kts | 122° |
| 2026-04-22 21:23 | 23.93727 | -75.78288 | 45119 ft | 525 kts | 122° |
| 2026-04-22 21:24 | 23.90365 | -75.71185 | 45122 ft | 527 kts | 122° |
| 2026-04-22 21:24 | 23.86986 | -75.64061 | 45128 ft | 529 kts | 122° |
| 2026-04-22 21:25 | 23.83596 | -75.56919 | 45128 ft | 528 kts | 122° |
| 2026-04-22 21:25 | 23.80219 | -75.49819 | 45119 ft | 525 kts | 122° |
| 2026-04-22 21:26 | 23.76859 | -75.42764 | 45120 ft | 523 kts | 122° |
| 2026-04-22 21:26 | 23.73493 | -75.35710 | 45114 ft | 525 kts | 122° |
| 2026-04-22 21:27 | 23.70108 | -75.28623 | 45115 ft | 528 kts | 122° |
| 2026-04-22 21:27 | 23.66701 | -75.21503 | 45091 ft | 529 kts | 122° |
| 2026-04-22 21:28 | 23.63311 | -75.14421 | 45110 ft | 524 kts | 122° |
| 2026-04-22 21:28 | 23.59945 | -75.07409 | 45108 ft | 521 kts | 122° |
| 2026-04-22 21:29 | 23.56577 | -75.00403 | 45110 ft | 523 kts | 122° |
| 2026-04-22 21:29 | 23.53191 | -74.93363 | 45110 ft | 525 kts | 122° |
| 2026-04-22 21:30 | 23.49789 | -74.86305 | 45107 ft | 527 kts | 122° |
| 2026-04-22 21:30 | 23.46400 | -74.79281 | 45104 ft | 527 kts | 122° |
| 2026-04-22 21:31 | 23.42992 | -74.72229 | 45103 ft | 524 kts | 122° |
| 2026-04-22 21:31 | 23.39603 | -74.65225 | 45095 ft | 522 kts | 122° |
| 2026-04-22 21:32 | 23.36217 | -74.58241 | 45102 ft | 523 kts | 123° |
| 2026-04-22 21:32 | 23.32813 | -74.51229 | 45103 ft | 525 kts | 122° |
| 2026-04-22 21:33 | 23.29394 | -74.44194 | 45103 ft | 527 kts | 123° |
| 2026-04-22 21:33 | 23.25965 | -74.37149 | 45102 ft | 525 kts | 122° |
| 2026-04-22 21:34 | 23.22568 | -74.30177 | 45097 ft | 519 kts | 123° |
| 2026-04-22 21:34 | 23.19181 | -74.23244 | 45092 ft | 520 kts | 122° |
| 2026-04-22 21:35 | 23.15799 | -74.16322 | 45097 ft | 523 kts | 123° |
| 2026-04-22 21:35 | 23.12356 | -74.09293 | 45099 ft | 525 kts | 123° |
| 2026-04-22 21:36 | 23.08944 | -74.02330 | 45098 ft | 526 kts | 123° |
| 2026-04-22 21:36 | 23.05515 | -73.95344 | 45093 ft | 523 kts | 123° |
| 2026-04-22 21:37 | 23.02099 | -73.88396 | 45083 ft | 520 kts | 123° |
| 2026-04-22 21:37 | 22.98689 | -73.81470 | 45084 ft | 521 kts | 123° |
| 2026-04-22 21:38 | 22.95267 | -73.74528 | 45086 ft | 523 kts | 123° |
| 2026-04-22 21:38 | 22.91827 | -73.67559 | 45087 ft | 525 kts | 123° |
| 2026-04-22 21:39 | 22.88372 | -73.60570 | 45048 ft | 526 kts | 122° |
| 2026-04-22 21:39 | 22.84943 | -73.53637 | 45073 ft | 518 kts | 123° |
| 2026-04-22 21:40 | 22.81543 | -73.46785 | 45078 ft | 516 kts | 123° |
| 2026-04-22 21:40 | 22.78155 | -73.39959 | 45079 ft | 519 kts | 123° |
| 2026-04-22 21:41 | 22.74729 | -73.33066 | 45082 ft | 520 kts | 123° |
| 2026-04-22 21:41 | 22.71289 | -73.26154 | 45079 ft | 522 kts | 123° |
| 2026-04-22 21:42 | 22.67833 | -73.19220 | 45081 ft | 523 kts | 123° |
| 2026-04-22 21:42 | 22.64381 | -73.12302 | 45078 ft | 521 kts | 123° |
| 2026-04-22 21:43 | 22.60943 | -73.05424 | 45073 ft | 518 kts | 123° |
| 2026-04-22 21:43 | 22.57517 | -72.98578 | 45069 ft | 517 kts | 123° |
| 2026-04-22 21:44 | 22.54082 | -72.91724 | 45078 ft | 519 kts | 123° |
| 2026-04-22 21:44 | 22.50629 | -72.84841 | 45081 ft | 521 kts | 123° |
| 2026-04-22 21:45 | 22.47749 | -72.79110 | 45075 ft | 521 kts | 123° |
| 2026-04-22 21:45 | 22.44296 | -72.72243 | 45068 ft | 518 kts | 123° |
| 2026-04-22 21:46 | 22.40861 | -72.65426 | 45064 ft | 515 kts | 123° |
| 2026-04-22 21:46 | 22.37428 | -72.58620 | 45069 ft | 516 kts | 123° |
| 2026-04-22 21:47 | 22.33981 | -72.51795 | 45071 ft | 518 kts | 123° |
| 2026-04-22 21:47 | 22.30520 | -72.44951 | 45073 ft | 520 kts | 123° |
| 2026-04-22 21:48 | 22.27043 | -72.38085 | 45074 ft | 522 kts | 123° |
| 2026-04-22 21:48 | 22.23559 | -72.31212 | 45073 ft | 521 kts | 123° |
| 2026-04-22 21:49 | 22.20085 | -72.24370 | 45062 ft | 518 kts | 123° |
| 2026-04-22 21:49 | 22.16628 | -72.17570 | 45060 ft | 516 kts | 123° |
| 2026-04-22 21:50 | 22.13176 | -72.10791 | 45058 ft | 516 kts | 123° |
| 2026-04-22 21:50 | 22.09711 | -72.03991 | 45060 ft | 518 kts | 123° |
| 2026-04-22 21:51 | 22.06259 | -71.97227 | 45063 ft | 517 kts | 123° |
| 2026-04-22 21:52 | 22.01069 | -71.87075 | 45052 ft | 514 kts | 123° |
| 2026-04-22 21:52 | 21.97620 | -71.80339 | 45056 ft | 513 kts | 123° |
| 2026-04-22 21:53 | 21.94161 | -71.73594 | 45057 ft | 515 kts | 123° |
| 2026-04-22 21:53 | 21.90690 | -71.66831 | 45055 ft | 517 kts | 123° |
| 2026-04-22 21:54 | 21.87204 | -71.60050 | 45058 ft | 518 kts | 123° |
| 2026-04-22 21:54 | 21.83706 | -71.53253 | 45053 ft | 519 kts | 123° |
| 2026-04-22 21:55 | 21.80211 | -71.46469 | 45050 ft | 517 kts | 123° |
| 2026-04-22 21:55 | 21.76730 | -71.39725 | 45048 ft | 515 kts | 123° |
| 2026-04-22 21:56 | 21.73283 | -71.33052 | 45046 ft | 513 kts | 123° |
| 2026-04-22 21:56 | 21.69809 | -71.26337 | 45050 ft | 515 kts | 123° |
| 2026-04-22 21:57 | 21.66323 | -71.19606 | 45053 ft | 515 kts | 123° |
| 2026-04-22 21:57 | 21.62832 | -71.12875 | 45051 ft | 516 kts | 123° |
| 2026-04-22 21:58 | 21.59338 | -71.06146 | 45050 ft | 516 kts | 123° |
| 2026-04-22 21:58 | 21.55561 | -70.99650 | 45060 ft | 511 kts | 129° |
| 2026-04-22 21:59 | 21.51552 | -70.93343 | 45059 ft | 511 kts | 129° |
| 2026-04-22 21:59 | 21.47552 | -70.87047 | 45053 ft | 510 kts | 129° |
| 2026-04-22 22:00 | 21.43542 | -70.80759 | 45047 ft | 510 kts | 129° |
| 2026-04-22 22:00 | 21.39541 | -70.74476 | 45042 ft | 510 kts | 129° |
| 2026-04-22 22:01 | 21.35534 | -70.68203 | 45041 ft | 509 kts | 129° |
| 2026-04-22 22:01 | 21.31532 | -70.61935 | 45039 ft | 509 kts | 129° |
| 2026-04-22 22:02 | 21.27530 | -70.55682 | 45040 ft | 508 kts | 129° |
| 2026-04-22 22:02 | 21.23520 | -70.49419 | 45041 ft | 510 kts | 129° |
| 2026-04-22 22:03 | 21.19493 | -70.43137 | 45046 ft | 512 kts | 129° |
| 2026-04-22 22:03 | 21.15452 | -70.36842 | 45041 ft | 513 kts | 129° |
| 2026-04-22 22:04 | 21.11398 | -70.30533 | 45039 ft | 515 kts | 129° |
| 2026-04-22 22:04 | 21.07357 | -70.24252 | 45040 ft | 515 kts | 129° |
| 2026-04-22 22:05 | 21.03272 | -70.17907 | 45035 ft | 513 kts | 129° |
| 2026-04-22 22:05 | 20.99250 | -70.11669 | 45033 ft | 512 kts | 129° |
| 2026-04-22 22:06 | 20.95203 | -70.05400 | 45034 ft | 512 kts | 129° |
| 2026-04-22 22:06 | 20.91122 | -69.99083 | 45003 ft | 513 kts | 129° |
| 2026-04-22 22:07 | 20.87087 | -69.92845 | 45030 ft | 514 kts | 129° |
| 2026-04-22 22:07 | 20.83011 | -69.86552 | 45026 ft | 516 kts | 129° |
| 2026-04-22 22:08 | 20.78895 | -69.80203 | 45025 ft | 517 kts | 129° |
| 2026-04-22 22:08 | 20.74818 | -69.73921 | 45021 ft | 518 kts | 129° |
| 2026-04-22 22:09 | 20.70715 | -69.67604 | 45026 ft | 516 kts | 130° |
| 2026-04-22 22:09 | 20.66628 | -69.61321 | 45021 ft | 514 kts | 130° |
| 2026-04-22 22:10 | 20.62557 | -69.55068 | 45023 ft | 512 kts | 130° |
| 2026-04-22 22:10 | 20.58485 | -69.48824 | 45026 ft | 514 kts | 130° |
| 2026-04-22 22:11 | 20.54396 | -69.42558 | 45031 ft | 515 kts | 130° |
| 2026-04-22 22:11 | 20.50293 | -69.36278 | 45024 ft | 516 kts | 130° |
| 2026-04-22 22:12 | 20.46180 | -69.29989 | 45026 ft | 517 kts | 130° |
| 2026-04-22 22:12 | 20.42058 | -69.23692 | 45021 ft | 519 kts | 130° |
| 2026-04-22 22:13 | 20.37922 | -69.17381 | 45026 ft | 519 kts | 130° |
| 2026-04-22 22:13 | 20.33785 | -69.11076 | 45024 ft | 519 kts | 130° |
| 2026-04-22 22:14 | 20.29648 | -69.04778 | 45021 ft | 518 kts | 130° |
| 2026-04-22 22:14 | 20.25513 | -68.98489 | 45021 ft | 518 kts | 130° |
| 2026-04-22 22:15 | 20.21379 | -68.92208 | 45016 ft | 518 kts | 130° |
| 2026-04-22 22:15 | 20.17243 | -68.85932 | 45016 ft | 518 kts | 130° |
| 2026-04-22 22:16 | 20.13108 | -68.79664 | 45024 ft | 517 kts | 130° |
| 2026-04-22 22:16 | 20.08973 | -68.73402 | 45020 ft | 517 kts | 130° |
| 2026-04-22 22:17 | 20.05010 | -68.67074 | 45016 ft | 518 kts | 128° |
| 2026-04-22 22:17 | 20.01043 | -68.60687 | 45015 ft | 517 kts | 128° |
| 2026-04-22 22:18 | 19.97089 | -68.54291 | 45012 ft | 517 kts | 128° |
| 2026-04-22 22:18 | 19.93129 | -68.47910 | 45014 ft | 517 kts | 128° |
| 2026-04-22 22:19 | 19.89168 | -68.41530 | 45011 ft | 517 kts | 128° |
| 2026-04-22 22:19 | 19.85208 | -68.35156 | 45010 ft | 517 kts | 128° |
| 2026-04-22 22:20 | 19.81245 | -68.28788 | 45011 ft | 517 kts | 128° |
| 2026-04-22 22:20 | 19.77283 | -68.22424 | 45010 ft | 516 kts | 128° |
| 2026-04-22 22:21 | 19.73320 | -68.16068 | 45025 ft | 515 kts | 128° |
| 2026-04-22 22:21 | 19.69380 | -68.09755 | 45010 ft | 511 kts | 128° |
| 2026-04-22 22:22 | 19.65461 | -68.03483 | 45011 ft | 509 kts | 128° |
| 2026-04-22 22:22 | 19.61535 | -67.97208 | 45010 ft | 511 kts | 128° |
| 2026-04-22 22:23 | 19.57595 | -67.90913 | 45008 ft | 513 kts | 128° |
| 2026-04-22 22:23 | 19.53635 | -67.84595 | 45007 ft | 515 kts | 128° |
| 2026-04-22 22:24 | 19.49691 | -67.78308 | 45008 ft | 515 kts | 128° |
| 2026-04-22 22:24 | 19.45732 | -67.72002 | 45004 ft | 512 kts | 128° |
| 2026-04-22 22:25 | 19.41796 | -67.65741 | 45003 ft | 509 kts | 128° |
| 2026-04-22 22:25 | 19.37862 | -67.59490 | 44999 ft | 511 kts | 128° |
| 2026-04-22 22:26 | 19.33913 | -67.53218 | 45005 ft | 511 kts | 129° |
| 2026-04-22 22:26 | 19.29965 | -67.46958 | 45001 ft | 511 kts | 129° |
| 2026-04-22 22:27 | 19.26018 | -67.40703 | 44997 ft | 511 kts | 129° |
| 2026-04-22 22:27 | 19.22071 | -67.34457 | 44995 ft | 510 kts | 129° |
| 2026-04-22 22:28 | 19.18126 | -67.28219 | 44998 ft | 510 kts | 129° |
| 2026-04-22 22:28 | 19.14181 | -67.21987 | 44997 ft | 510 kts | 129° |
| 2026-04-22 22:29 | 19.10235 | -67.15761 | 44996 ft | 509 kts | 129° |
| 2026-04-22 22:29 | 19.08259 | -67.12647 | 44708 ft | 513 kts | 129° |
| 2026-04-22 22:29 | 19.06272 | -67.09517 | 43989 ft | 510 kts | 129° |
| 2026-04-22 22:29 | 19.04314 | -67.06423 | 43328 ft | 502 kts | 129° |
| 2026-04-22 22:30 | 19.02387 | -67.03385 | 42673 ft | 493 kts | 129° |
| 2026-04-22 22:30 | 19.00487 | -67.00400 | 42028 ft | 487 kts | 130° |
| 2026-04-22 22:30 | 18.98604 | -66.97445 | 41401 ft | 484 kts | 130° |
| 2026-04-22 22:30 | 18.96727 | -66.94497 | 40766 ft | 485 kts | 130° |
| 2026-04-22 22:31 | 18.94831 | -66.91520 | 40113 ft | 491 kts | 130° |
| 2026-04-22 22:31 | 18.92918 | -66.88514 | 39467 ft | 496 kts | 130° |
| 2026-04-22 22:31 | 18.90985 | -66.85480 | 38810 ft | 500 kts | 130° |
| 2026-04-22 22:31 | 18.89039 | -66.82424 | 38098 ft | 501 kts | 130° |
| 2026-04-22 22:32 | 18.87097 | -66.79376 | 37445 ft | 500 kts | 130° |
| 2026-04-22 22:32 | 18.85157 | -66.76336 | 36781 ft | 500 kts | 130° |
| 2026-04-22 22:32 | 18.83208 | -66.73288 | 36125 ft | 503 kts | 130° |
| 2026-04-22 22:32 | 18.81244 | -66.70216 | 35459 ft | 507 kts | 130° |
| 2026-04-22 22:33 | 18.79273 | -66.67103 | 34785 ft | 513 kts | 128° |
| 2026-04-22 22:33 | 18.78105 | -66.64915 | 34325 ft | 520 kts | 121° |
| 2026-04-22 22:33 | 18.76378 | -66.60175 | 33365 ft | 526 kts | 109° |
| 2026-04-22 22:33 | 18.75641 | -66.56389 | 32678 ft | 528 kts | 100° |
| 2026-04-22 22:34 | 18.75338 | -66.52516 | 31994 ft | 531 kts | 95° |
| 2026-04-22 22:34 | 18.75093 | -66.48612 | 31290 ft | 535 kts | 95° |
| 2026-04-22 22:34 | 18.74835 | -66.44688 | 30582 ft | 538 kts | 95° |
| 2026-04-22 22:34 | 18.74565 | -66.40756 | 29842 ft | 537 kts | 95° |
| 2026-04-22 22:35 | 18.74386 | -66.38111 | 29349 ft | 532 kts | 95° |
| 2026-04-22 22:35 | 18.74131 | -66.34243 | 28473 ft | 524 kts | 95° |
| 2026-04-22 22:35 | 18.73880 | -66.30454 | 27794 ft | 511 kts | 95° |
| 2026-04-22 22:35 | 18.73628 | -66.26745 | 27139 ft | 504 kts | 95° |
| 2026-04-22 22:36 | 18.73377 | -66.23072 | 26481 ft | 501 kts | 95° |
| 2026-04-22 22:36 | 18.73130 | -66.19420 | 25829 ft | 498 kts | 95° |
| 2026-04-22 22:36 | 18.72889 | -66.15842 | 25193 ft | 493 kts | 95° |
| 2026-04-22 22:36 | 18.72645 | -66.12264 | 24550 ft | 486 kts | 95° |
| 2026-04-22 22:37 | 18.72402 | -66.08734 | 23921 ft | 479 kts | 95° |
| 2026-04-22 22:37 | 18.72163 | -66.05248 | 23255 ft | 473 kts | 95° |
| 2026-04-22 22:37 | 18.71928 | -66.01814 | 22631 ft | 465 kts | 94° |
| 2026-04-22 22:37 | 18.71695 | -65.98439 | 22031 ft | 458 kts | 94° |
| 2026-04-22 22:38 | 18.71465 | -65.95112 | 21436 ft | 452 kts | 94° |
| 2026-04-22 22:38 | 18.71237 | -65.91823 | 20846 ft | 447 kts | 94° |
| 2026-04-22 22:38 | 18.71011 | -65.88568 | 20265 ft | 443 kts | 94° |
| 2026-04-22 22:38 | 18.70787 | -65.85349 | 19688 ft | 437 kts | 94° |
| 2026-04-22 22:39 | 18.70565 | -65.82176 | 19118 ft | 430 kts | 94° |
| 2026-04-22 22:39 | 18.70347 | -65.79049 | 18560 ft | 424 kts | 94° |
| 2026-04-22 22:39 | 18.70131 | -65.75974 | 17978 ft | 418 kts | 94° |
| 2026-04-22 22:39 | 18.69918 | -65.72945 | 17426 ft | 411 kts | 94° |
| 2026-04-22 22:40 | 18.69707 | -65.69950 | 16904 ft | 408 kts | 94° |
| 2026-04-22 22:40 | 18.69497 | -65.66979 | 16355 ft | 406 kts | 94° |
| 2026-04-22 22:40 | 18.69288 | -65.64019 | 15824 ft | 403 kts | 94° |
| 2026-04-22 22:40 | 18.69081 | -65.61096 | 15292 ft | 397 kts | 94° |
| 2026-04-22 22:41 | 18.68875 | -65.58209 | 14783 ft | 392 kts | 94° |
| 2026-04-22 22:41 | 18.68672 | -65.55362 | 14273 ft | 387 kts | 94° |
| 2026-04-22 22:41 | 18.68471 | -65.52548 | 13763 ft | 381 kts | 94° |
| 2026-04-22 22:41 | 18.68277 | -65.49836 | 13252 ft | 360 kts | 94° |
| 2026-04-22 22:42 | 18.68093 | -65.47272 | 12797 ft | 341 kts | 94° |
| 2026-04-22 22:42 | 18.67919 | -65.44837 | 12370 ft | 325 kts | 94° |
| 2026-04-22 22:42 | 18.67753 | -65.42505 | 11958 ft | 313 kts | 94° |
| 2026-04-22 22:42 | 18.67471 | -65.40264 | 11563 ft | 306 kts | 104° |
| 2026-04-22 22:43 | 18.66707 | -65.38174 | 11167 ft | 305 kts | 118° |
| 2026-04-22 22:43 | 18.65507 | -65.36341 | 10759 ft | 304 kts | 132° |
| 2026-04-22 22:43 | 18.63940 | -65.34865 | 10348 ft | 302 kts | 146° |
| 2026-04-22 22:43 | 18.62119 | -65.33787 | 9952 ft | 298 kts | 154° |
| 2026-04-22 22:44 | 18.60273 | -65.32804 | 9521 ft | 296 kts | 153° |
| 2026-04-22 22:44 | 18.58453 | -65.31819 | 9118 ft | 292 kts | 153° |
| 2026-04-22 22:44 | 18.56654 | -65.30846 | 8726 ft | 290 kts | 153° |
| 2026-04-22 22:44 | 18.54858 | -65.29879 | 8328 ft | 290 kts | 153° |
| 2026-04-22 22:45 | 18.53065 | -65.28915 | 7946 ft | 289 kts | 152° |
| 2026-04-22 22:45 | 18.51282 | -65.27955 | 7556 ft | 287 kts | 152° |
| 2026-04-22 22:45 | 18.49516 | -65.27002 | 7171 ft | 284 kts | 152° |
| 2026-04-22 22:45 | 18.47764 | -65.26061 | 6782 ft | 281 kts | 152° |
| 2026-04-22 22:46 | 18.46025 | -65.25125 | 6403 ft | 280 kts | 152° |
| 2026-04-22 22:46 | 18.44295 | -65.24192 | 6011 ft | 278 kts | 152° |
| 2026-04-22 22:46 | 18.42575 | -65.23267 | 5633 ft | 277 kts | 152° |
| 2026-04-22 22:46 | 18.40865 | -65.22347 | 5264 ft | 275 kts | 152° |
| 2026-04-22 22:47 | 18.39158 | -65.21430 | 4898 ft | 275 kts | 152° |
| 2026-04-22 22:47 | 18.37454 | -65.20514 | 4520 ft | 275 kts | 152° |
| 2026-04-22 22:47 | 18.35805 | -65.19513 | 4135 ft | 273 kts | 142° |
| 2026-04-22 22:47 | 18.34489 | -65.18137 | 3774 ft | 269 kts | 127° |
| 2026-04-22 22:48 | 18.33563 | -65.16451 | 3414 ft | 265 kts | 112° |
| 2026-04-22 22:48 | 18.33078 | -65.14595 | 3056 ft | 262 kts | 97° |
| 2026-04-22 22:48 | 18.33040 | -65.12698 | 2711 ft | 256 kts | 86° |
| 2026-04-22 22:48 | 18.33140 | -65.10859 | 2371 ft | 248 kts | 86° |
| 2026-04-22 22:49 | 18.33214 | -65.09117 | 2088 ft | 217 kts | 87° |
| 2026-04-22 22:49 | 18.33274 | -65.07640 | 1959 ft | 192 kts | 86° |
| 2026-04-22 22:49 | 18.33335 | -65.06251 | 1490 ft | 180 kts | 85° |
| 2026-04-22 22:49 | 18.33386 | -65.05044 | 1258 ft | 155 kts | 86° |
| 2026-04-22 22:50 | 18.33427 | -65.04021 | 1081 ft | 128 kts | 87° |
| 2026-04-22 22:50 | 18.33470 | -65.03094 | 909 ft | 128 kts | 87° |
| 2026-04-22 22:50 | 18.33513 | -65.02157 | 760 ft | 127 kts | 86° |
| 2026-04-22 22:50 | 18.33554 | -65.01223 | 609 ft | 131 kts | 88° |
| 2026-04-22 22:51 | 18.33595 | -65.00270 | 424 ft | 126 kts | 86° |
| 2026-04-22 22:51 | 18.33640 | -64.99336 | 275 ft | 133 kts | 84° |
| 2026-04-22 22:51 | 18.33687 | -64.98374 | 81 ft | 131 kts | 85° |
| 2026-04-22 22:51 | 18.33724 | -64.97500 | 24 ft | 97 kts | 87° |
| 2026-04-22 22:52 | 18.33743 | -64.97015 | 21 ft | 46 kts | 86° |
| 2026-04-22 22:52 | 18.33757 | -64.96753 | 17 ft | 27 kts | 87° |
| 2026-04-22 22:52 | 18.33775 | -64.96688 | 17 ft | 5 kts | 29° |
| 2026-04-22 22:52 | 18.33828 | -64.96687 | 18 ft | 8 kts | 355° |
| 2026-04-22 22:53 | 18.33884 | -64.96688 | 20 ft | 9 kts | 0° |
| 2026-04-22 22:53 | 18.33909 | -64.96722 | 22 ft | 6 kts | 248° |
| 2026-04-22 22:53 | 18.33890 | -64.96735 | 22 ft | 3 kts | 249° |
| 2026-04-22 22:53 | 18.33888 | -64.96779 | 20 ft | 8 kts | 268° |
| 2026-04-22 22:54 | 18.33894 | -64.96798 | 21 ft | 1 kts | 0° |
| 2026-04-22 22:54 | 18.33895 | -64.96798 | 21 ft | 0 kts | 357° |